createdAt,value
2019-05-09T14:04:33.656Z,21.60
2019-05-09T14:07:02.917Z,22.90
2019-05-09T14:09:32.284Z,22.50
2019-05-09T14:12:01.681Z,22.30
2019-05-09T14:14:31.021Z,22.20
2019-05-09T14:17:00.370Z,22.10
2019-05-09T14:19:40.747Z,22.10
2019-05-09T14:22:00.752Z,21.80
2019-05-09T14:24:30.196Z,21.70
2019-05-09T14:26:59.549Z,21.40
2019-05-09T14:29:31.422Z,21.20
2019-05-09T14:32:04.348Z,20.90
2019-05-09T14:34:31.032Z,20.80
2019-05-09T14:37:00.421Z,20.60
2019-05-09T14:39:29.714Z,20.50
2019-05-09T14:41:59.054Z,20.30
2019-05-09T14:44:28.389Z,20.20
2019-05-09T14:46:58.349Z,20.20
2019-05-09T14:49:39.745Z,20.10
2019-05-09T14:51:59.203Z,20.10
2019-05-09T14:54:29.102Z,20.10
2019-05-09T14:56:58.589Z,20.00
2019-05-09T14:59:28.750Z,19.90
2019-05-09T15:01:59.195Z,20.00
2019-05-09T15:04:28.817Z,20.10
2019-05-09T15:06:58.248Z,20.20
2019-05-09T15:09:28.467Z,20.30
2019-05-09T15:11:58.592Z,20.40
2019-05-09T15:14:28.973Z,20.40
2019-05-09T15:16:58.772Z,20.40
2019-05-09T15:19:28.719Z,20.20
2019-05-09T15:22:00.840Z,20.20
2019-05-09T15:24:29.480Z,20.20
2019-05-09T15:26:58.822Z,20.10
2019-05-09T15:29:29.047Z,20.00
2019-05-09T15:32:04.741Z,20.00
2019-05-09T15:34:29.661Z,19.90
2019-05-09T15:36:58.984Z,19.80
2019-05-09T15:39:28.341Z,19.80
2019-05-09T15:41:58.113Z,19.80
2019-05-09T15:44:27.599Z,19.80
2019-05-09T15:47:02.625Z,19.60
2019-05-09T15:49:32.051Z,19.60
2019-05-09T15:52:01.411Z,19.50
2019-05-09T15:54:32.355Z,19.30
2019-05-09T15:57:01.849Z,19.20
2019-05-09T15:59:31.345Z,19.10
2019-05-09T16:02:00.712Z,19.20
2019-05-09T16:04:30.101Z,19.20
2019-05-09T16:06:59.543Z,19.20
2019-05-09T16:09:28.876Z,19.30
2019-05-09T16:11:58.265Z,19.30
2019-05-09T16:14:27.802Z,19.40
2019-05-09T16:16:57.118Z,19.60
2019-05-09T16:19:26.538Z,19.80
2019-05-09T16:21:55.815Z,20.10
2019-05-09T16:24:27.830Z,20.40
2019-05-09T16:26:57.798Z,20.60
2019-05-09T16:29:28.495Z,20.70
2019-05-09T16:31:58.437Z,20.90
2019-05-09T16:34:28.289Z,21.10
2019-05-09T16:36:58.416Z,21.30
2019-05-09T16:39:28.017Z,21.30
2019-05-09T16:41:59.240Z,21.40
2019-05-09T16:44:28.483Z,21.30
2019-05-09T16:46:57.844Z,21.30
2019-05-09T16:49:29.211Z,21.20
2019-05-09T16:51:58.301Z,21.10
2019-05-09T16:54:32.001Z,21.00
2019-05-09T16:57:01.456Z,20.90
2019-05-09T16:59:30.802Z,20.70
2019-05-09T17:02:00.174Z,20.50
2019-05-09T17:04:29.624Z,20.20
2019-05-09T17:06:58.967Z,20.00
2019-05-09T17:09:28.638Z,19.80
2019-05-09T17:11:58.021Z,19.50
2019-05-09T17:14:28.320Z,19.30
2019-05-09T17:16:59.896Z,19.10
2019-05-09T17:19:28.842Z,18.90
2019-05-09T17:22:05.023Z,18.70
2019-05-09T17:24:34.344Z,18.60
2019-05-09T17:27:03.728Z,18.40
2019-05-09T17:29:33.282Z,18.40
2019-05-09T17:32:02.664Z,18.50
2019-05-09T17:34:31.978Z,18.40
2019-05-09T17:37:01.291Z,18.40
2019-05-09T17:39:30.673Z,18.40
2019-05-09T17:42:00.029Z,18.40
2019-05-09T17:44:29.455Z,18.40
2019-05-09T17:46:58.811Z,18.40
2019-05-09T17:49:28.249Z,18.30
2019-05-09T17:51:58.402Z,18.40
2019-05-09T17:54:28.753Z,18.30
2019-05-09T17:56:58.483Z,18.40
2019-05-09T17:59:29.218Z,18.40
2019-05-09T18:01:58.980Z,18.40
2019-05-09T18:04:28.989Z,18.30
2019-05-09T18:06:58.734Z,18.40
2019-05-09T18:09:28.702Z,18.60
2019-05-09T18:11:58.288Z,19.10
2019-05-09T18:14:27.854Z,19.40
2019-05-09T18:16:58.185Z,19.60
2019-05-09T18:19:29.293Z,19.60
2019-05-09T18:21:58.973Z,19.40
2019-05-09T18:24:28.830Z,19.30
2019-05-09T18:26:58.503Z,19.10
2019-05-09T18:29:28.110Z,18.90
2019-05-09T18:32:13.734Z,18.80
2019-05-09T18:34:43.102Z,18.60
2019-05-09T18:37:12.415Z,18.40
2019-05-09T18:39:41.748Z,18.20
2019-05-09T18:42:11.159Z,18.00
2019-05-09T18:44:40.522Z,17.80
2019-05-09T18:47:09.969Z,17.70
2019-05-09T18:49:39.343Z,17.50
2019-05-09T18:52:08.774Z,17.30
2019-05-09T18:54:38.110Z,17.20
2019-05-09T18:57:07.481Z,17.00
2019-05-09T18:59:36.846Z,16.90
2019-05-09T19:02:06.322Z,16.80
2019-05-09T19:04:35.766Z,16.70
2019-05-09T19:07:20.779Z,16.60
2019-05-09T19:09:36.325Z,16.50
2019-05-09T19:12:05.662Z,16.40
2019-05-09T19:14:35.192Z,16.30
2019-05-09T19:17:29.352Z,16.20
2019-05-09T19:20:15.647Z,16.10
2019-05-09T19:22:45.038Z,16.00
2019-05-09T19:25:14.693Z,15.90
2019-05-09T19:27:44.151Z,15.80
2019-05-09T19:30:13.696Z,15.70
2019-05-09T19:32:43.049Z,15.60
2019-05-09T19:35:12.942Z,15.50
2019-05-09T19:37:42.280Z,15.50
2019-05-09T19:40:13.048Z,15.40
2019-05-09T19:42:42.382Z,15.30
2019-05-09T19:45:12.072Z,15.20
2019-05-09T19:47:41.434Z,15.10
2019-05-09T19:50:11.089Z,15.10
2019-05-09T19:52:40.437Z,15.00
2019-05-09T19:55:10.115Z,14.90
2019-05-09T19:57:39.432Z,14.90
2019-05-09T20:00:09.369Z,14.80
2019-05-09T20:02:38.764Z,14.80
2019-05-09T20:05:08.794Z,14.80
2019-05-09T20:07:38.136Z,14.70
2019-05-09T20:10:26.771Z,14.70
2019-05-09T20:13:15.720Z,14.70
2019-05-09T20:15:45.440Z,14.70
2019-05-09T20:18:14.801Z,14.80
2019-05-09T20:20:44.299Z,14.70
2019-05-09T20:23:13.694Z,14.80
2019-05-09T20:25:43.249Z,14.80
2019-05-09T20:28:12.857Z,14.80
2019-05-09T20:30:42.284Z,14.90
2019-05-09T20:33:11.716Z,14.90
2019-05-09T20:35:41.025Z,14.80
2019-05-09T20:38:10.553Z,14.90
2019-05-09T20:40:40.103Z,14.80
2019-05-09T20:43:09.629Z,14.90
2019-05-09T20:45:39.231Z,14.90
2019-05-09T20:48:08.766Z,14.80
2019-05-09T20:50:38.323Z,14.80
2019-05-09T20:53:09.918Z,14.80
2019-05-09T20:55:39.133Z,14.80
2019-05-09T20:58:08.719Z,14.80
2019-05-09T21:00:38.362Z,14.80
2019-05-09T21:03:08.270Z,14.80
2019-05-09T21:05:38.017Z,14.80
2019-05-09T21:08:07.580Z,14.80
2019-05-09T21:10:37.167Z,14.80
2019-05-09T21:13:06.669Z,14.80
2019-05-09T21:15:36.253Z,14.70
2019-05-09T21:18:05.872Z,14.60
2019-05-09T21:20:35.446Z,14.60
2019-05-09T21:23:04.945Z,14.60
2019-05-09T21:25:34.428Z,14.60
2019-05-09T21:28:03.960Z,14.60
2019-05-09T21:30:33.498Z,14.60
2019-05-09T21:33:02.999Z,14.60
2019-05-09T21:35:32.360Z,14.60
2019-05-09T21:38:01.770Z,14.50
2019-05-09T21:40:31.087Z,14.50
2019-05-09T21:43:00.431Z,14.50
2019-05-09T21:45:29.783Z,14.50
2019-05-09T21:47:59.127Z,14.40
2019-05-09T21:50:28.460Z,14.40
2019-05-09T21:52:57.793Z,14.40
2019-05-09T21:55:27.201Z,14.30
2019-05-09T21:57:56.545Z,14.40
2019-05-09T22:00:31.242Z,14.40
2019-05-09T22:03:00.558Z,14.30
2019-05-09T22:05:29.850Z,14.30
2019-05-09T22:07:59.185Z,14.30
2019-05-09T22:10:28.610Z,14.40
2019-05-09T22:12:57.935Z,14.30
2019-05-09T22:15:27.267Z,14.20
2019-05-09T22:17:56.638Z,14.10
2019-05-09T22:20:26.026Z,14.10
2019-05-09T22:22:55.329Z,14.00
2019-05-09T22:25:24.641Z,13.90
2019-05-09T22:27:54.004Z,13.90
2019-05-09T22:30:23.471Z,13.90
2019-05-09T22:32:52.778Z,14.00
2019-05-09T22:35:22.155Z,14.00
2019-05-09T22:37:51.470Z,14.00
2019-05-09T22:40:20.815Z,13.90
2019-05-09T22:42:50.127Z,13.90
2019-05-09T22:45:20.823Z,13.90
2019-05-09T22:47:50.104Z,13.90
2019-05-09T22:50:19.441Z,13.90
2019-05-09T22:52:48.732Z,13.80
2019-05-09T22:55:18.444Z,13.80
2019-05-09T22:57:47.930Z,13.80
2019-05-09T23:00:17.528Z,13.80
2019-05-09T23:02:46.834Z,13.80
2019-05-09T23:05:16.144Z,13.70
2019-05-09T23:07:45.451Z,13.70
2019-05-09T23:10:14.759Z,13.70
2019-05-09T23:12:44.034Z,13.70
2019-05-09T23:15:15.253Z,13.70
2019-05-09T23:17:44.610Z,13.70
2019-05-09T23:20:33.099Z,13.70
2019-05-09T23:23:22.785Z,13.80
2019-05-09T23:25:52.130Z,13.80
2019-05-09T23:28:21.442Z,13.70
2019-05-09T23:30:52.551Z,13.70
2019-05-09T23:33:22.871Z,13.70
2019-05-09T23:35:52.164Z,13.60
2019-05-09T23:38:21.519Z,13.60
2019-05-09T23:40:50.817Z,13.50
2019-05-09T23:43:20.176Z,13.50
2019-05-09T23:45:49.533Z,13.50
2019-05-09T23:48:18.831Z,13.50
2019-05-09T23:50:48.099Z,13.40
2019-05-09T23:53:22.100Z,13.40
2019-05-09T23:56:09.201Z,13.40
2019-05-09T23:58:56.378Z,13.40
